createdAt,value
2019-02-19T00:04:06.371Z,6.85
2019-02-19T00:09:15.199Z,4.39
2019-02-19T00:14:24.130Z,2.70
2019-02-19T00:19:33.001Z,3.92
2019-02-19T00:24:41.947Z,3.48
2019-02-19T00:29:50.799Z,3.25
2019-02-19T00:34:59.742Z,3.22
2019-02-19T00:40:08.615Z,3.23
2019-02-19T00:45:17.602Z,3.43
2019-02-19T00:50:26.496Z,2.95
2019-02-19T00:55:35.450Z,3.65
2019-02-19T01:00:44.350Z,3.81
2019-02-19T01:05:53.297Z,3.49
2019-02-19T01:11:02.153Z,3.31
2019-02-19T01:16:11.094Z,3.27
2019-02-19T01:21:19.994Z,3.31
2019-02-19T01:26:29.328Z,2.62
2019-02-19T01:31:38.219Z,3.22
2019-02-19T01:36:47.131Z,3.17
2019-02-19T01:41:56.354Z,3.20
2019-02-19T01:47:05.264Z,2.69
2019-02-19T01:52:14.124Z,3.42
2019-02-19T01:57:23.048Z,2.96
2019-02-19T02:02:31.946Z,2.80
2019-02-19T02:07:41.327Z,2.94
2019-02-19T02:12:50.229Z,2.58
2019-02-19T02:17:59.528Z,2.62
2019-02-19T02:23:08.378Z,2.24
2019-02-19T02:28:17.299Z,3.91
2019-02-19T02:33:26.260Z,2.64
2019-02-19T02:38:35.212Z,3.21
2019-02-19T02:43:44.077Z,3.34
2019-02-19T02:48:51.539Z,3.36
2019-02-19T02:54:00.483Z,2.99
2019-02-19T02:59:09.457Z,2.37
2019-02-19T03:04:18.273Z,2.46
2019-02-19T03:09:27.208Z,2.46
2019-02-19T03:14:36.098Z,2.74
2019-02-19T03:19:45.037Z,2.42
2019-02-19T03:24:53.874Z,2.60
2019-02-19T03:30:02.798Z,2.57
2019-02-19T03:35:11.645Z,2.36
2019-02-19T03:40:20.568Z,2.81
2019-02-19T03:45:32.480Z,2.87
2019-02-19T03:50:31.374Z,2.91
2019-02-19T03:55:40.213Z,2.27
2019-02-19T04:00:49.145Z,2.49
2019-02-19T04:05:58.021Z,2.62
2019-02-19T04:11:06.931Z,2.72
2019-02-19T04:16:21.240Z,2.57
2019-02-19T04:21:24.189Z,2.43
2019-02-19T04:26:33.068Z,2.47
2019-02-19T04:31:42.004Z,2.51
2019-02-19T04:36:50.818Z,2.70
2019-02-19T04:41:59.748Z,2.47
2019-02-19T04:47:08.591Z,2.06
2019-02-19T04:52:17.484Z,2.11
2019-02-19T04:57:26.331Z,2.28
2019-02-19T05:02:35.246Z,2.37
2019-02-19T05:07:44.112Z,2.49
2019-02-19T05:18:00.962Z,2.25
2019-02-19T05:23:09.868Z,2.23
2019-02-19T05:28:18.702Z,2.18
2019-02-19T05:33:27.631Z,2.09
2019-02-19T05:38:36.490Z,1.91
2019-02-19T05:43:45.623Z,2.13
2019-02-19T05:48:54.488Z,2.16
2019-02-19T05:54:03.430Z,2.35
2019-02-19T05:59:12.264Z,2.04
2019-02-19T06:04:21.179Z,2.17
2019-02-19T06:09:30.055Z,1.91
2019-02-19T06:14:39.036Z,2.32
2019-02-19T06:19:47.893Z,2.24
2019-02-19T06:24:56.789Z,2.24
2019-02-19T06:30:05.772Z,2.16
2019-02-19T06:35:14.675Z,2.24
2019-02-19T06:40:23.507Z,2.37
2019-02-19T06:45:32.413Z,2.17
2019-02-19T06:50:41.323Z,2.33
2019-02-19T06:55:50.263Z,2.17
2019-02-19T07:00:59.105Z,2.36
2019-02-19T07:06:08.045Z,1.93
2019-02-19T07:11:16.886Z,2.55
2019-02-19T07:16:25.822Z,2.55
2019-02-19T07:21:33.639Z,2.54
2019-02-19T07:26:42.551Z,2.25
2019-02-19T07:31:51.426Z,2.19
2019-02-19T07:37:00.682Z,2.15
2019-02-19T07:42:09.521Z,1.86
2019-02-19T07:47:24.448Z,1.80
2019-02-19T07:52:26.851Z,2.08
2019-02-19T07:57:35.775Z,1.89
2019-02-19T08:02:44.578Z,1.97
2019-02-19T08:07:53.528Z,1.71
2019-02-19T08:13:02.466Z,1.65
2019-02-19T08:18:11.414Z,1.32
2019-02-19T08:23:20.255Z,1.38
2019-02-19T08:28:29.572Z,1.43
2019-02-19T08:33:38.411Z,1.43
2019-02-19T08:38:47.331Z,1.36
2019-02-19T08:43:56.336Z,1.10
2019-02-19T08:49:05.325Z,1.39
2019-02-19T08:54:14.162Z,1.76
2019-02-19T08:59:23.119Z,1.91
2019-02-19T09:04:31.979Z,1.65
2019-02-19T09:09:43.965Z,1.99
2019-02-19T09:14:42.781Z,1.98
2019-02-19T09:19:51.731Z,2.69
2019-02-19T09:25:00.578Z,2.24
2019-02-19T09:30:09.525Z,2.03
2019-02-19T09:35:18.471Z,1.94
2019-02-19T09:40:27.466Z,2.21
2019-02-19T09:45:36.309Z,1.95
2019-02-19T09:50:45.247Z,1.98
2019-02-19T09:55:54.089Z,2.53
2019-02-19T10:01:03.016Z,2.33
2019-02-19T10:06:11.855Z,2.12
2019-02-19T10:11:20.756Z,2.04
2019-02-19T10:16:29.659Z,2.14
2019-02-19T10:21:38.618Z,2.13
2019-02-19T10:26:47.480Z,2.02
2019-02-19T10:31:56.394Z,1.93
2019-02-19T10:37:05.286Z,1.97
2019-02-19T10:42:14.244Z,2.10
2019-02-19T10:47:23.062Z,2.38
2019-02-19T10:52:32.062Z,2.24
2019-02-19T10:57:41.627Z,2.04
2019-02-19T11:02:50.564Z,1.92
2019-02-19T11:07:59.411Z,2.02
2019-02-19T11:13:08.374Z,1.89
2019-02-19T11:18:17.250Z,2.27
2019-02-19T11:23:26.206Z,1.59
2019-02-19T11:28:35.147Z,2.15
2019-02-19T11:33:44.512Z,1.79
2019-02-19T11:38:53.385Z,2.26
2019-02-19T11:44:02.323Z,1.69
2019-02-19T11:49:11.480Z,1.69
2019-02-19T11:54:21.852Z,1.56
2019-02-19T11:59:28.791Z,1.59
2019-02-19T12:04:37.735Z,1.37
2019-02-19T12:09:46.674Z,1.31
2019-02-19T12:14:55.625Z,1.27
2019-02-19T12:20:04.522Z,1.13
2019-02-19T12:25:13.487Z,1.27
2019-02-19T12:30:22.353Z,1.30
2019-02-19T12:35:31.295Z,1.20
2019-02-19T12:40:40.188Z,1.36
2019-02-19T12:45:49.082Z,1.29
2019-02-19T12:50:57.971Z,1.37
2019-02-19T12:56:06.938Z,1.60
2019-02-19T13:01:16.143Z,1.27
2019-02-19T13:06:24.346Z,1.12
2019-02-19T13:11:33.234Z,1.28
2019-02-19T13:16:42.243Z,1.19
2019-02-19T13:21:51.116Z,1.39
2019-02-19T13:27:00.591Z,1.37
2019-02-19T13:32:09.511Z,1.26
2019-02-19T13:37:18.415Z,1.11
2019-02-19T13:42:27.298Z,1.54
2019-02-19T13:47:36.250Z,1.50
2019-02-19T13:52:45.197Z,1.61
2019-02-19T13:57:54.240Z,1.61
2019-02-19T14:03:07.296Z,1.50
2019-02-19T14:08:14.256Z,1.40
2019-02-19T14:13:14.487Z,1.66
2019-02-19T14:18:23.405Z,1.58
2019-02-19T14:23:32.319Z,1.45
2019-02-19T14:28:41.278Z,2.87
2019-02-19T14:33:50.248Z,4.33
2019-02-19T14:38:59.693Z,1.53
2019-02-19T14:44:08.601Z,1.37
2019-02-19T14:49:17.600Z,1.22
2019-02-19T14:54:26.578Z,1.53
2019-02-19T14:59:35.705Z,1.48
2019-02-19T15:04:44.617Z,1.55
2019-02-19T15:09:53.559Z,3.08
2019-02-19T15:15:02.431Z,2.37
2019-02-19T15:20:11.420Z,1.56
2019-02-19T15:25:20.441Z,1.14
2019-02-19T15:30:29.517Z,1.53
2019-02-19T15:35:38.699Z,1.51
2019-02-19T15:40:47.829Z,1.25
2019-02-19T15:45:57.498Z,1.50
2019-02-19T15:51:06.549Z,1.12
2019-02-19T15:56:17.532Z,1.38
2019-02-19T16:01:23.999Z,1.46
2019-02-19T16:06:32.991Z,1.37
2019-02-19T16:11:42.477Z,1.81
2019-02-19T16:16:51.535Z,1.97
2019-02-19T16:22:00.931Z,2.17
2019-02-19T16:27:09.783Z,3.45
2019-02-19T16:32:18.702Z,1.77
2019-02-19T16:37:27.614Z,1.92
2019-02-19T16:42:36.531Z,1.90
2019-02-19T16:47:45.350Z,2.00
2019-02-19T16:52:54.239Z,1.54
2019-02-19T16:58:03.084Z,1.75
2019-02-19T17:03:11.967Z,1.54
2019-02-19T17:08:20.826Z,2.17
2019-02-19T17:13:29.759Z,1.79
2019-02-19T17:18:38.603Z,2.00
2019-02-19T17:23:47.550Z,1.78
2019-02-19T17:28:56.397Z,1.94
2019-02-19T17:34:05.358Z,1.40
2019-02-19T17:39:14.639Z,1.62
2019-02-19T17:44:23.583Z,1.50
2019-02-19T17:49:32.427Z,2.36
2019-02-19T17:54:41.540Z,2.44
2019-02-19T17:59:50.388Z,2.43
2019-02-19T18:04:59.297Z,1.55
2019-02-19T18:10:08.133Z,2.25
2019-02-19T18:15:17.060Z,1.44
2019-02-19T18:20:26.180Z,1.79
2019-02-19T18:25:35.137Z,3.27
2019-02-19T18:30:43.986Z,6.99
2019-02-19T18:35:52.910Z,4.16
2019-02-19T18:41:01.882Z,2.83
2019-02-19T18:46:13.876Z,2.21
2019-02-19T18:51:12.667Z,1.69
2019-02-19T18:56:21.608Z,1.88
2019-02-19T19:01:30.563Z,1.87
2019-02-19T19:06:39.447Z,1.94
2019-02-19T19:11:48.303Z,1.63
2019-02-19T19:16:57.271Z,1.70
2019-02-19T19:22:06.114Z,1.96
2019-02-19T19:27:15.090Z,2.31
2019-02-19T19:32:25.242Z,1.67
2019-02-19T19:37:24.151Z,1.63
2019-02-19T19:42:33.021Z,1.94
2019-02-19T19:47:41.986Z,1.63
2019-02-19T19:52:50.808Z,1.51
2019-02-19T19:57:59.768Z,1.54
2019-02-19T20:03:08.651Z,1.72
2019-02-19T20:08:17.622Z,1.82
2019-02-19T20:13:26.524Z,1.98
2019-02-19T20:18:39.142Z,3.88
2019-02-19T20:23:43.834Z,4.78
2019-02-19T20:28:52.776Z,2.44
2019-02-19T20:34:01.670Z,2.01
2019-02-19T20:39:10.574Z,2.29
2019-02-19T20:44:19.415Z,1.96
2019-02-19T20:49:28.788Z,2.50
2019-02-19T20:54:37.651Z,2.07
2019-02-19T20:59:46.538Z,1.95
2019-02-19T21:04:55.426Z,2.22
2019-02-19T21:10:04.358Z,1.66
2019-02-19T21:15:13.802Z,1.80
2019-02-19T21:20:22.201Z,1.71
2019-02-19T21:25:31.232Z,1.96
2019-02-19T21:30:38.847Z,2.00
2019-02-19T21:35:47.826Z,1.69
2019-02-19T21:40:56.860Z,1.95
2019-02-19T21:46:06.080Z,1.83
2019-02-19T21:51:15.843Z,1.99
2019-02-19T21:56:24.693Z,2.13
2019-02-19T22:01:33.686Z,1.91
2019-02-19T22:06:42.547Z,2.10
2019-02-19T22:11:51.491Z,1.70
2019-02-19T22:17:00.362Z,2.50
2019-02-19T22:22:09.293Z,1.90
2019-02-19T22:27:18.142Z,2.85
2019-02-19T22:32:27.449Z,2.46
2019-02-19T22:37:36.245Z,3.37
2019-02-19T22:42:45.934Z,2.03
2019-02-19T22:47:54.788Z,2.37
2019-02-19T22:53:04.087Z,2.53
2019-02-19T22:58:13.904Z,1.93
2019-02-19T23:03:22.720Z,1.94
2019-02-19T23:08:31.570Z,2.05
2019-02-19T23:13:41.457Z,2.03
2019-02-19T23:18:50.153Z,2.01
2019-02-19T23:23:59.096Z,1.91
2019-02-19T23:29:07.902Z,2.02
2019-02-19T23:34:16.953Z,2.63
2019-02-19T23:39:25.839Z,2.00
2019-02-19T23:44:34.798Z,2.08
2019-02-19T23:49:43.727Z,2.22
2019-02-19T23:54:52.653Z,1.83
